METAR AND TAF INFORMATION
METAR FOR FYLZ
ADDS - METARS form results

(0701 UTC 25 August 2019)
Data provider http://aviationweather.gov/metar/data/
 
Forecast for: FYLZ (LUDERITZ/DIAZ PO, NA)
Text: TAF FYLZ 250500Z 2506/2515 00000KT CAVOK
Forecast period: 0600 to 0900 UTC 25 August 2019
Forecast type: FROM: standard forecast or significant change
Winds: calm
Visibility: 6 or more miles 10+ km)
Ceiling: unknown
Clouds: missing
Weather: NSW  (no significant weather)
Text: BECMG 2509/2511 18015KT
Forecast period: 0900 to 1500 UTC 25 August 2019
Forecast type: BECOMING: Conditions expected to become as follows by 1100 UTC 25 August 2019
Winds: from the S (180 degrees) at 17 MPH (15 knots; 7.7 m/s)
Visibility: 6 or more miles 10+ km)
Ceiling: unknown
Clouds: missing
Weather: NSW  (no significant weather)

 AIRPORT MAP

 RUNWAY INFORMATION
Runway 04 Runway length 6004 ft Runway width 98 ft
Runway elevation 420 ft Runway displaced threshold 0 ft Runway heading 17
Runway 22 Runway length 6004 ft Runway width 98 ft
Runway elevation 392 ft Runway displaced threshold 0 ft Runway heading 197
Runway 12 Runway length 3830 ft Runway width 98 ft
Runway elevation 421 ft Runway displaced threshold 0 ft Runway heading 99
Runway 30 Runway length 3830 ft Runway width 98 ft
Runway elevation 457 ft Runway displaced threshold 0 ft Runway heading 279

 AIRPORT FREQUENCIES
Type CTAF Name CTAF Frequency 124.8 MHZ

 AIRPORT NEAR NAVIGATION AIDS



The South Africal Virtual Air Force